This is the latest recevied weather packets stored in our database for station/object WA5KWK. If no packets are shown the sender has not sent any weather packets the latest 10 day(s).
| Time | Temp. | Humidity | Pressure | Rain* | Wind** | Luminosity | Snow |
|---|---|---|---|---|---|---|---|
| 1777579805 | 21.11° C | 58% | 1014 hPa | 0 mm | - | 990 W/m² | - |
| 1777577405 | 21.11° C | 57% | 1014 hPa | 0 mm | - | 983 W/m² | - |
| 1777575905 | 20.56° C | 55% | 1014.5 hPa | 0 mm | - | 958 W/m² | - |
| 1777572006 | 20.56° C | 51% | 1014.6 hPa | 0 mm | - | 851 W/m² | - |
| 1777571406 | 20° C | 53% | 1014.5 hPa | 0 mm | - | 795 W/m² | - |
| 1777566605 | 18.33° C | 57% | 1014.3 hPa | 0 mm | - | 605 W/m² | - |
| 1777566005 | 17.78° C | 56% | 1014.2 hPa | 0 mm | - | 211 W/m² | - |
| 1777565405 | 17.22° C | 57% | 1014.4 hPa | 0 mm | - | 216 W/m² | - |
| 1777565105 | 17.22° C | 57% | 1014.3 hPa | 0 mm | - | 65 W/m² | - |
| 1777564505 | 17.22° C | 58% | 1014.2 hPa | 0 mm | - | 128 W/m² | - |
| 1777561805 | 15.56° C | 66% | 1014.5 hPa | 0 mm | - | 262 W/m² | - |
| 1777559410 | 12.78° C | 71% | 1014.5 hPa | 0 mm | - | 30 W/m² | - |
| 1777557905 | 12.22° C | 72% | 1014.5 hPa | 0 mm | - | 25 W/m² | - |
| 1777557005 | 11.67° C | 73% | 1014.4 hPa | 0 mm | - | 18 W/m² | - |
| 1777554606 | 11.67° C | 74% | 1014 hPa | 0 mm | - | 0 W/m² | - |
| 1777551904 | 11.67° C | 73% | 1014.2 hPa | 0 mm | - | 0 W/m² | - |
| 1777551004 | 11.67° C | 74% | 1014.2 hPa | 0 mm | - | 0 W/m² | - |
| 1777548905 | 11.67° C | 74% | 1014.1 hPa | 0 mm | - | 0 W/m² | - |
| 1777548304 | 11.67° C | 73% | 1014.2 hPa | 0 mm | - | 0 W/m² | - |
| 1777543505 | 11.11° C | 77% | 1014.9 hPa | 0 mm | - | 0 W/m² | - |
| 1777542605 | 11.11° C | 77% | 1014.9 hPa | 0 mm | - | 0 W/m² | - |
| 1777538705 | 12.22° C | 74% | 1015.7 hPa | 0 mm | - | 0 W/m² | - |
| 1777537807 | 11.67° C | 75% | 1015.7 hPa | 0 mm | - | 0 W/m² | - |
| 1777536905 | 12.22° C | 75% | 1015.8 hPa | 0 mm | - | 0 W/m² | - |
| 1777533904 | 12.22° C | 75% | 1016.1 hPa | 0 mm | - | 0 W/m² | - |
* Rain latest hour (hover to see other rain measurements)
** Current wind speed in m/s (hover to see current wind gust speed)